Terminal Aerodrome Forecast
Issued by NWS

Home | Current Version | Previous Version | Text Only | Print | Product List | Glossary On
Versions: 1 2 3 4 5 6 7 8 9 10 11 12 13 14 15 16 17 18 19 20 21 22 23 24 25 26 27 28 29 30 31
000
FTUS46 KLOX 282000 AAA
TAFLAX
TAF AMD
KLAX 282053Z 2821/2924 26010KT P6SM FEW010 SCT090 BKN250
     FM290600 VRB03KT P6SM SCT150
     FM291300 VRB03KT 4SM BR OVC015
     FM291700 25006KT P6SM SCT150
     FM292000 25012KT P6SM SKC=

USA.gov is the U.S. government's official web portal to all federal, state and local government web resources and services.